createdAt,value
2023-04-01T00:00:17.161Z,27
2023-04-01T00:01:18.939Z,27
2023-04-01T00:02:20.664Z,26
2023-04-01T00:03:22.356Z,26
2023-04-01T00:04:24.114Z,26
2023-04-01T00:05:25.021Z,26
2023-04-01T00:06:26.220Z,26
2023-04-01T00:07:30.580Z,28
2023-04-01T00:08:28.999Z,28
2023-04-01T00:09:30.233Z,27
2023-04-01T00:10:31.050Z,27
2023-04-01T00:11:32.064Z,28
2023-04-01T00:12:33.007Z,28
2023-04-01T00:13:34.065Z,28
2023-04-01T00:14:35.043Z,29
2023-04-01T00:15:36.161Z,29
2023-04-01T00:16:38.447Z,30
2023-04-01T00:17:40.075Z,28
2023-04-01T00:18:41.158Z,28
2023-04-01T00:19:42.225Z,28
2023-04-01T00:20:44.080Z,29
2023-04-01T00:21:45.101Z,29
2023-04-01T00:22:46.060Z,29
2023-04-01T00:23:47.020Z,28
2023-04-01T00:24:48.140Z,29
2023-04-01T00:25:50.120Z,28
2023-04-01T00:26:51.117Z,29
2023-04-01T00:27:52.123Z,29
2023-04-01T00:28:53.064Z,30
2023-04-01T00:29:54.064Z,30
2023-04-01T00:30:55.064Z,29
2023-04-01T00:31:56.163Z,29
2023-04-01T00:32:57.175Z,30
2023-04-01T00:33:58.110Z,31
2023-04-01T00:34:59.050Z,31
2023-04-01T00:36:00.163Z,31
2023-04-01T00:37:01.164Z,31
2023-04-01T00:38:02.045Z,33
2023-04-01T00:39:03.099Z,33
2023-04-01T00:40:04.045Z,33
2023-04-01T00:41:05.055Z,33
2023-04-01T00:42:06.133Z,33
2023-04-01T00:43:07.091Z,31
2023-04-01T00:44:08.086Z,31
2023-04-01T00:45:09.071Z,33
2023-04-01T00:46:10.186Z,33
2023-04-01T00:47:11.476Z,31
2023-04-01T00:48:13.300Z,33
2023-04-01T00:49:14.066Z,33
2023-04-01T00:50:15.075Z,34
2023-04-01T00:51:16.027Z,33
2023-04-01T00:52:17.146Z,33
2023-04-01T00:53:18.047Z,34
2023-04-01T00:54:19.053Z,33
2023-04-01T00:55:20.046Z,31
2023-04-01T00:56:21.648Z,31
2023-04-01T00:57:23.207Z,33
2023-04-01T00:58:24.135Z,33
2023-04-01T00:59:25.125Z,33
2023-04-01T01:00:26.110Z,31
2023-04-01T01:01:27.116Z,33
2023-04-01T01:02:28.803Z,33
2023-04-01T01:03:30.238Z,34
2023-04-01T01:04:31.088Z,33
2023-04-01T01:05:34.254Z,31
2023-04-01T01:06:33.186Z,31
2023-04-01T01:07:34.472Z,31
2023-04-01T01:08:36.247Z,33
2023-04-01T01:09:37.086Z,33
2023-04-01T01:10:38.108Z,33
2023-04-01T01:11:43.342Z,31
2023-04-01T01:12:40.154Z,31
2023-04-01T01:13:41.065Z,31
2023-04-01T01:14:42.149Z,31
2023-04-01T01:15:43.106Z,31
2023-04-01T01:16:44.111Z,31
2023-04-01T01:17:45.309Z,31
2023-04-01T01:18:47.246Z,30
2023-04-01T01:19:49.273Z,30
2023-04-01T01:20:50.095Z,31
2023-04-01T01:21:51.126Z,30
2023-04-01T01:22:52.206Z,30
2023-04-01T01:23:53.067Z,31
2023-04-01T01:24:54.090Z,31
2023-04-01T01:25:55.106Z,31
2023-04-01T01:26:56.105Z,31
2023-04-01T01:27:57.195Z,31
2023-04-01T01:28:58.059Z,31
2023-04-01T01:29:59.085Z,31
2023-04-01T01:31:00.203Z,33
2023-04-01T01:32:01.109Z,31
2023-04-01T01:33:02.223Z,33
2023-04-01T01:34:03.065Z,34
2023-04-01T01:35:04.105Z,33
2023-04-01T01:36:05.157Z,34
2023-04-01T01:37:06.088Z,33
2023-04-01T01:38:07.206Z,34
2023-04-01T01:39:08.100Z,33
2023-04-01T01:40:09.145Z,33
2023-04-01T01:41:10.128Z,34
2023-04-01T01:42:11.152Z,33
2023-04-01T01:43:12.164Z,33
2023-04-01T01:44:13.107Z,34
2023-04-01T01:45:14.129Z,34
2023-04-01T01:46:15.060Z,35
2023-04-01T01:47:16.087Z,35
2023-04-01T01:48:17.441Z,34
2023-04-01T01:49:19.350Z,34
2023-04-01T01:50:21.130Z,34
2023-04-01T01:51:22.114Z,34
2023-04-01T01:52:23.147Z,34
2023-04-01T01:53:24.197Z,34
2023-04-01T01:54:25.207Z,34
2023-04-01T01:55:26.128Z,34
2023-04-01T01:56:27.123Z,34
2023-04-01T01:57:28.104Z,34
2023-04-01T01:58:29.146Z,34
2023-04-01T01:59:30.124Z,34
2023-04-01T02:00:31.124Z,35
2023-04-01T02:01:32.154Z,35
2023-04-01T02:02:33.168Z,35
2023-04-01T02:03:34.965Z,34
2023-04-01T02:04:36.132Z,35
2023-04-01T02:05:37.112Z,34
2023-04-01T02:06:38.169Z,34
2023-04-01T02:07:39.130Z,33
2023-04-01T02:08:40.163Z,34
2023-04-01T02:09:41.126Z,34
2023-04-01T02:10:42.070Z,33
2023-04-01T02:11:43.047Z,31
2023-04-01T02:12:44.156Z,31
2023-04-01T02:13:45.173Z,30
2023-04-01T02:14:46.143Z,30
2023-04-01T02:15:47.227Z,31
2023-04-01T02:16:48.126Z,31
2023-04-01T02:17:49.226Z,31
2023-04-01T02:18:50.343Z,31
2023-04-01T02:19:51.122Z,31
2023-04-01T02:20:52.056Z,30
2023-04-01T02:21:53.176Z,31
2023-04-01T02:22:54.166Z,31
2023-04-01T02:23:55.205Z,30
2023-04-01T02:24:56.164Z,31
2023-04-01T02:25:57.113Z,31
2023-04-01T02:26:58.242Z,30
2023-04-01T02:27:59.130Z,29
2023-04-01T02:29:00.223Z,29
2023-04-01T02:30:01.140Z,29
2023-04-01T02:31:02.465Z,29
2023-04-01T02:32:04.051Z,30
2023-04-01T02:33:05.242Z,29
2023-04-01T02:34:06.266Z,30
2023-04-01T02:35:08.134Z,30
2023-04-01T02:36:09.175Z,30
2023-04-01T02:37:10.129Z,31
2023-04-01T02:38:11.122Z,30
2023-04-01T02:39:12.162Z,30
2023-04-01T02:40:13.101Z,29
2023-04-01T02:41:14.171Z,29
2023-04-01T02:42:15.111Z,29
2023-04-01T02:43:16.146Z,29
2023-04-01T02:44:17.211Z,29
2023-04-01T02:45:18.121Z,30
2023-04-01T02:46:19.189Z,28
2023-04-01T02:47:20.264Z,29
2023-04-01T02:48:21.263Z,29
2023-04-01T02:49:22.204Z,28
2023-04-01T02:50:23.125Z,28
2023-04-01T02:51:24.145Z,29
2023-04-01T02:52:25.074Z,28
2023-04-01T02:53:26.113Z,27
2023-04-01T02:54:27.209Z,27
2023-04-01T02:55:28.133Z,27
2023-04-01T02:56:29.129Z,27
2023-04-01T02:57:30.206Z,27
2023-04-01T02:58:31.132Z,26
2023-04-01T02:59:32.207Z,27
2023-04-01T03:00:33.148Z,27
2023-04-01T03:01:34.355Z,27
2023-04-01T03:02:35.279Z,27
2023-04-01T03:03:36.243Z,27
2023-04-01T03:04:37.822Z,26
2023-04-01T03:05:39.127Z,26
2023-04-01T03:06:40.179Z,26
2023-04-01T03:07:41.404Z,26
2023-04-01T03:08:42.146Z,27
2023-04-01T03:09:43.217Z,26
2023-04-01T03:10:44.103Z,27
2023-04-01T03:11:45.158Z,27
2023-04-01T03:12:46.106Z,27
2023-04-01T03:13:47.167Z,26
2023-04-01T03:14:48.191Z,26
2023-04-01T03:15:49.149Z,26
2023-04-01T03:16:50.194Z,26
2023-04-01T03:17:51.437Z,26
2023-04-01T03:18:53.212Z,26
2023-04-01T03:19:54.246Z,26
2023-04-01T03:20:55.234Z,27
2023-04-01T03:21:56.128Z,26
2023-04-01T03:22:57.208Z,26
2023-04-01T03:23:58.588Z,25
2023-04-01T03:25:00.211Z,26
2023-04-01T03:26:01.134Z,26
2023-04-01T03:27:02.443Z,25
2023-04-01T03:28:03.163Z,25
2023-04-01T03:29:04.143Z,26
2023-04-01T03:30:05.371Z,26
2023-04-01T03:31:06.195Z,26
2023-04-01T03:32:07.134Z,26
2023-04-01T03:33:08.187Z,26
2023-04-01T03:34:09.202Z,26
2023-04-01T03:35:10.197Z,25
2023-04-01T03:36:11.116Z,25
2023-04-01T03:37:12.296Z,25
2023-04-01T03:38:13.146Z,25
2023-04-01T03:39:14.130Z,25
2023-04-01T03:40:15.323Z,27
2023-04-01T03:41:16.167Z,27
2023-04-01T03:42:17.173Z,26
2023-04-01T03:43:18.143Z,26
2023-04-01T03:44:19.187Z,27
2023-04-01T03:45:20.144Z,28
2023-04-01T03:46:21.273Z,28
2023-04-01T03:47:22.248Z,28
2023-04-01T03:48:23.144Z,29
2023-04-01T03:49:24.183Z,29
2023-04-01T03:50:25.182Z,29
2023-04-01T03:51:26.156Z,28
2023-04-01T03:52:27.121Z,28
2023-04-01T03:53:28.152Z,28
2023-04-01T03:54:29.129Z,28
2023-04-01T03:55:30.653Z,28
2023-04-01T03:56:31.184Z,29
2023-04-01T03:57:32.319Z,30
2023-04-01T03:58:33.788Z,30
2023-04-01T03:59:35.222Z,30
2023-04-01T04:00:36.305Z,30
2023-04-01T04:01:37.258Z,31
2023-04-01T04:02:38.217Z,31
2023-04-01T04:03:39.297Z,33
2023-04-01T04:04:40.204Z,33
2023-04-01T04:05:41.564Z,33
2023-04-01T04:06:43.324Z,31
2023-04-01T04:07:45.245Z,31
2023-04-01T04:08:46.174Z,33
2023-04-01T04:09:48.090Z,33
2023-04-01T04:10:49.233Z,34
2023-04-01T04:11:50.226Z,35
2023-04-01T04:12:51.238Z,35
2023-04-01T04:13:52.147Z,34
2023-04-01T04:14:53.207Z,34
2023-04-01T04:15:54.460Z,35
2023-04-01T04:16:55.190Z,34
2023-04-01T04:17:56.389Z,35
2023-04-01T04:18:57.152Z,36
2023-04-01T04:19:58.212Z,35
2023-04-01T04:20:59.968Z,35
2023-04-01T04:22:01.313Z,35
2023-04-01T04:23:03.246Z,35
2023-04-01T04:24:04.260Z,35
2023-04-01T04:25:05.365Z,37
2023-04-01T04:26:07.002Z,36
2023-04-01T04:27:08.166Z,36
2023-04-01T04:28:09.173Z,37
2023-04-01T04:29:10.995Z,36
2023-04-01T04:30:12.232Z,36
2023-04-01T04:31:13.319Z,36
2023-04-01T04:32:14.252Z,36
2023-04-01T04:33:15.452Z,36
2023-04-01T04:34:16.551Z,36
2023-04-01T04:35:18.306Z,36
2023-04-01T04:36:19.372Z,36
2023-04-01T04:37:20.172Z,37
2023-04-01T04:38:21.266Z,37
2023-04-01T04:39:22.915Z,37
2023-04-01T04:40:24.224Z,37
2023-04-01T04:41:25.247Z,37
2023-04-01T04:42:26.193Z,37
2023-04-01T04:43:27.592Z,37
2023-04-01T04:44:29.530Z,38
2023-04-01T04:45:32.455Z,39
2023-04-01T04:46:33.412Z,39
2023-04-01T04:47:35.269Z,38
2023-04-01T04:48:36.333Z,37
2023-04-01T04:49:38.205Z,37
2023-04-01T04:50:39.304Z,38
2023-04-01T04:51:41.244Z,37
2023-04-01T04:52:42.288Z,37
2023-04-01T04:53:43.908Z,38
2023-04-01T04:54:45.264Z,38
2023-04-01T04:55:46.246Z,38
2023-04-01T04:56:47.304Z,39
2023-04-01T04:57:48.245Z,39
2023-04-01T04:58:49.228Z,39
2023-04-01T04:59:50.246Z,39
2023-04-01T05:00:51.695Z,39
2023-04-01T05:01:53.644Z,39
2023-04-01T05:02:55.384Z,40
2023-04-01T05:03:56.232Z,39
2023-04-01T05:04:57.344Z,39
2023-04-01T05:05:59.083Z,39
2023-04-01T05:07:00.731Z,39
2023-04-01T05:08:02.358Z,39
2023-04-01T05:09:03.212Z,40
2023-04-01T05:10:04.242Z,40
2023-04-01T05:11:05.234Z,40
2023-04-01T05:12:06.248Z,40
2023-04-01T05:13:07.226Z,40
2023-04-01T05:14:08.184Z,41
2023-04-01T05:15:09.237Z,41
2023-04-01T05:16:10.263Z,41
2023-04-01T05:17:11.433Z,40
2023-04-01T05:18:12.427Z,40
2023-04-01T05:19:14.943Z,40
2023-04-01T05:20:16.353Z,40
2023-04-01T05:21:18.694Z,40
2023-04-01T05:22:20.982Z,40
2023-04-01T05:23:22.247Z,41
2023-04-01T05:24:23.287Z,41
2023-04-01T05:25:24.272Z,40
2023-04-01T05:26:25.824Z,40
2023-04-01T05:27:27.252Z,40
2023-04-01T05:28:28.264Z,40
2023-04-01T05:29:29.324Z,40
2023-04-01T05:30:31.383Z,41
2023-04-01T05:31:32.391Z,41
2023-04-01T05:32:33.329Z,40
2023-04-01T05:33:34.248Z,40
2023-04-01T05:34:35.265Z,42
2023-04-01T05:35:36.317Z,41
2023-04-01T05:36:37.254Z,41
2023-04-01T05:37:38.804Z,41
2023-04-01T05:38:41.683Z,41
2023-04-01T05:39:43.279Z,41
2023-04-01T05:40:44.290Z,41
2023-04-01T05:41:45.251Z,40
2023-04-01T05:42:47.025Z,40
2023-04-01T05:43:49.374Z,40
2023-04-01T05:44:51.369Z,40
2023-04-01T05:45:53.255Z,40
2023-04-01T05:46:54.355Z,40
2023-04-01T05:47:55.902Z,41
2023-04-01T05:48:57.429Z,41
2023-04-01T05:49:59.766Z,41
2023-04-01T05:51:01.427Z,40
2023-04-01T05:52:03.848Z,40
2023-04-01T05:53:05.301Z,40
2023-04-01T05:54:06.757Z,40
2023-04-01T05:55:08.268Z,40
2023-04-01T05:56:09.432Z,41
2023-04-01T05:57:11.391Z,40
2023-04-01T05:58:14.235Z,40
2023-04-01T05:59:15.731Z,41
2023-04-01T06:00:17.374Z,41
2023-04-01T06:01:18.322Z,42
2023-04-01T06:02:20.723Z,42
2023-04-01T06:03:22.953Z,42
2023-04-01T06:04:25.000Z,42
2023-04-01T06:05:26.523Z,42
2023-04-01T06:06:28.756Z,44
2023-04-01T06:07:30.286Z,42
2023-04-01T06:08:31.531Z,44
2023-04-01T06:09:33.538Z,44
2023-04-01T06:10:35.606Z,44
2023-04-01T06:11:37.594Z,44
2023-04-01T06:12:39.763Z,44
2023-04-01T06:13:41.496Z,45
2023-04-01T06:14:43.292Z,44
2023-04-01T06:15:44.313Z,44
2023-04-01T06:16:45.621Z,42
2023-04-01T06:17:47.646Z,44
2023-04-01T06:18:49.509Z,42
2023-04-01T06:19:51.725Z,42
2023-04-01T06:20:53.444Z,45
2023-04-01T06:21:54.354Z,45
2023-04-01T06:22:55.296Z,44
2023-04-01T06:23:57.430Z,44
2023-04-01T06:24:58.615Z,44
2023-04-01T06:26:00.251Z,44
2023-04-01T06:27:01.364Z,44
2023-04-01T06:28:03.303Z,45
2023-04-01T06:29:04.309Z,44
2023-04-01T06:30:06.009Z,44
2023-04-01T06:31:07.706Z,44
2023-04-01T06:32:09.478Z,44
2023-04-01T06:33:10.720Z,44
2023-04-01T06:34:12.292Z,45
2023-04-01T06:35:13.418Z,44
2023-04-01T06:36:14.487Z,45
2023-04-01T06:37:15.363Z,45
2023-04-01T06:38:16.969Z,45
2023-04-01T06:39:18.383Z,45
2023-04-01T06:40:19.245Z,46
2023-04-01T06:41:20.249Z,46
2023-04-01T06:42:21.355Z,47
2023-04-01T06:43:22.238Z,47
2023-04-01T06:44:23.396Z,47
2023-04-01T06:45:25.455Z,46
2023-04-01T06:46:27.344Z,47
2023-04-01T06:47:28.295Z,47
2023-04-01T06:48:29.330Z,47
2023-04-01T06:49:30.426Z,47
2023-04-01T06:50:32.497Z,47
2023-04-01T06:51:34.227Z,47
2023-04-01T06:52:35.754Z,47
2023-04-01T06:53:37.547Z,47
2023-04-01T06:54:39.681Z,48
2023-04-01T06:55:41.785Z,49
2023-04-01T06:56:43.648Z,48
2023-04-01T06:57:45.395Z,48
2023-04-01T06:58:46.288Z,47
2023-04-01T06:59:47.286Z,48
2023-04-01T07:00:48.532Z,49
2023-04-01T07:01:49.516Z,48
2023-04-01T07:02:50.306Z,48
2023-04-01T07:03:52.337Z,48
2023-04-01T07:04:53.751Z,50
2023-04-01T07:05:55.605Z,50
2023-04-01T07:06:57.584Z,49
2023-04-01T07:07:59.328Z,48
2023-04-01T07:09:00.263Z,47
2023-04-01T07:10:02.384Z,44
2023-04-01T07:11:03.357Z,41
2023-04-01T07:12:04.351Z,41
2023-04-01T07:13:05.403Z,42
2023-04-01T07:14:07.565Z,42
2023-04-01T07:15:09.886Z,44
2023-04-01T07:16:11.362Z,44
2023-04-01T07:17:13.433Z,50
2023-04-01T07:18:14.272Z,49
2023-04-01T07:19:16.082Z,48
2023-04-01T07:20:17.309Z,49
2023-04-01T07:21:18.400Z,46
2023-04-01T07:22:19.325Z,45
2023-04-01T07:23:20.236Z,45
2023-04-01T07:24:21.345Z,45
2023-04-01T07:25:22.394Z,46
2023-04-01T07:26:25.163Z,45
2023-04-01T07:27:26.300Z,45
2023-04-01T07:28:27.817Z,45
2023-04-01T07:29:29.230Z,50
2023-04-01T07:30:30.801Z,48
2023-04-01T07:31:32.615Z,46
2023-04-01T07:32:36.136Z,45
2023-04-01T07:33:36.268Z,45
2023-04-01T07:34:37.640Z,45
2023-04-01T07:35:40.155Z,45
2023-04-01T07:36:41.340Z,45
2023-04-01T07:37:42.361Z,45
2023-04-01T07:38:43.611Z,45
2023-04-01T07:39:45.274Z,44
2023-04-01T07:40:46.344Z,44
2023-04-01T07:41:47.226Z,44
2023-04-01T07:42:48.474Z,45
2023-04-01T07:43:49.328Z,45
2023-04-01T07:44:50.233Z,45
2023-04-01T07:45:51.387Z,45
2023-04-01T07:46:52.267Z,46
2023-04-01T07:47:53.321Z,45
2023-04-01T07:48:54.285Z,45
2023-04-01T07:49:55.388Z,46
2023-04-01T07:50:56.313Z,48
2023-04-01T07:51:57.289Z,49
2023-04-01T07:52:58.247Z,49
2023-04-01T07:53:59.287Z,47
2023-04-01T07:55:00.325Z,48
2023-04-01T07:56:01.323Z,47
2023-04-01T07:57:02.394Z,48
2023-04-01T07:58:03.505Z,47
2023-04-01T07:59:05.322Z,47
2023-04-01T08:00:06.310Z,48
2023-04-01T08:01:07.485Z,48
2023-04-01T08:02:08.378Z,47
2023-04-01T08:03:09.459Z,48
2023-04-01T08:04:10.442Z,50
2023-04-01T08:05:11.307Z,50
2023-04-01T08:06:12.461Z,48
2023-04-01T08:07:14.166Z,47
2023-04-01T08:08:15.270Z,47
2023-04-01T08:09:16.323Z,47
2023-04-01T08:10:17.868Z,47
2023-04-01T08:11:20.769Z,47
2023-04-01T08:12:22.548Z,46
2023-04-01T08:13:23.381Z,45
2023-04-01T08:14:24.304Z,46
2023-04-01T08:15:25.319Z,46
2023-04-01T08:16:26.733Z,45
2023-04-01T08:17:28.509Z,45
2023-04-01T08:18:30.524Z,48
2023-04-01T08:19:32.542Z,49
2023-04-01T08:20:34.326Z,48
2023-04-01T08:21:35.441Z,48
2023-04-01T08:22:37.417Z,48
2023-04-01T08:23:39.512Z,47
2023-04-01T08:24:47.455Z,47
2023-04-01T08:25:43.318Z,48
2023-04-01T08:26:44.365Z,46
2023-04-01T08:27:45.262Z,45
2023-04-01T08:28:46.358Z,44
2023-04-01T08:29:47.365Z,45
2023-04-01T08:30:48.302Z,45
2023-04-01T08:31:49.397Z,47
2023-04-01T08:32:50.599Z,48
2023-04-01T08:33:51.315Z,42
2023-04-01T08:34:52.244Z,42
2023-04-01T08:35:53.320Z,42
2023-04-01T08:36:54.839Z,42
2023-04-01T08:37:56.338Z,45
2023-04-01T08:38:58.541Z,45
2023-04-01T08:40:00.364Z,46
2023-04-01T08:41:01.272Z,46
2023-04-01T08:42:02.446Z,45
2023-04-01T08:43:09.407Z,42
2023-04-01T08:44:10.412Z,42
2023-04-01T08:45:14.360Z,42
2023-04-01T08:46:14.487Z,44
2023-04-01T08:47:16.541Z,44
2023-04-01T08:48:18.664Z,44
2023-04-01T08:49:20.621Z,44
2023-04-01T08:50:22.414Z,44
2023-04-01T08:51:23.350Z,45
2023-04-01T08:52:25.423Z,44
2023-04-01T08:53:26.761Z,42
2023-04-01T08:54:28.262Z,41
2023-04-01T08:55:29.276Z,41
2023-04-01T08:56:30.441Z,41
2023-04-01T08:57:31.417Z,40
2023-04-01T08:58:32.276Z,41
2023-04-01T08:59:33.410Z,39
2023-04-01T09:00:34.385Z,40
2023-04-01T09:01:36.537Z,41
2023-04-01T09:02:38.671Z,40
2023-04-01T09:03:40.712Z,40
2023-04-01T09:04:42.275Z,40
2023-04-01T09:05:43.348Z,42
2023-04-01T09:06:44.289Z,41
2023-04-01T09:07:45.387Z,40
2023-04-01T09:08:46.384Z,40
2023-04-01T09:09:47.289Z,39
2023-04-01T09:10:48.500Z,40
2023-04-01T09:11:51.574Z,39
2023-04-01T09:12:52.381Z,38
2023-04-01T09:13:53.540Z,37
2023-04-01T09:14:55.523Z,37
2023-04-01T09:15:57.441Z,36
2023-04-01T09:16:58.427Z,37
2023-04-01T09:17:59.381Z,38
2023-04-01T09:19:00.690Z,38
2023-04-01T09:20:03.510Z,38
2023-04-01T09:21:05.925Z,38
2023-04-01T09:22:07.484Z,37
2023-04-01T09:23:09.683Z,36
2023-04-01T09:24:12.126Z,34
2023-04-01T09:25:13.346Z,33
2023-04-01T09:26:14.259Z,33
2023-04-01T09:28:17.010Z,34
2023-04-01T09:29:18.488Z,34
2023-04-01T09:30:19.665Z,35
2023-04-01T09:31:21.763Z,35
2023-04-01T09:32:24.217Z,35
2023-04-01T09:33:25.329Z,36
2023-04-01T09:34:26.567Z,34
2023-04-01T09:35:28.553Z,30
2023-04-01T09:36:30.733Z,30
2023-04-01T09:37:32.511Z,31
2023-04-01T09:38:34.370Z,34
2023-04-01T09:39:35.425Z,35
2023-04-01T09:40:36.573Z,35
2023-04-01T09:41:37.357Z,35
2023-04-01T09:42:38.369Z,36
2023-04-01T09:43:39.349Z,36
2023-04-01T09:44:41.228Z,35
2023-04-01T09:45:42.470Z,35
2023-04-01T09:46:43.605Z,35
2023-04-01T09:47:44.581Z,33
2023-04-01T09:48:45.613Z,31
2023-04-01T09:49:47.474Z,30
2023-04-01T09:50:48.305Z,30
2023-04-01T09:51:49.373Z,30
2023-04-01T09:52:50.390Z,30
2023-04-01T09:53:51.671Z,29
2023-04-01T09:54:53.455Z,28
2023-04-01T09:55:55.051Z,27
2023-04-01T09:56:56.945Z,27
2023-04-01T09:57:58.483Z,27
2023-04-01T09:59:00.427Z,27
2023-04-01T10:00:01.506Z,27
2023-04-01T10:01:03.699Z,28
2023-04-01T10:02:05.458Z,27
2023-04-01T10:03:07.507Z,27
2023-04-01T10:04:08.666Z,27
2023-04-01T10:05:10.422Z,28
2023-04-01T10:06:11.557Z,28
2023-04-01T10:07:13.490Z,28
2023-04-01T10:08:15.345Z,27
2023-04-01T10:09:16.478Z,27
2023-04-01T10:10:17.430Z,27
2023-04-01T10:11:18.493Z,27
2023-04-01T10:12:19.429Z,27
2023-04-01T10:13:20.642Z,27
2023-04-01T10:14:22.453Z,27
2023-04-01T10:15:23.990Z,27
2023-04-01T10:16:26.013Z,27
2023-04-01T10:17:27.574Z,27
2023-04-01T10:18:28.413Z,28
2023-04-01T10:19:29.364Z,28
2023-04-01T10:20:30.844Z,29
2023-04-01T10:21:32.369Z,29
2023-04-01T10:22:33.364Z,28
2023-04-01T10:23:34.344Z,29
2023-04-01T10:24:35.406Z,28
2023-04-01T10:25:36.390Z,28
2023-04-01T10:26:37.677Z,28
2023-04-01T10:27:39.424Z,27
2023-04-01T10:28:40.342Z,27
2023-04-01T10:29:41.383Z,28
2023-04-01T10:30:42.525Z,28
2023-04-01T10:31:43.431Z,27
2023-04-01T10:32:44.794Z,26
2023-04-01T10:33:45.383Z,24
2023-04-01T10:34:46.412Z,22
2023-04-01T10:35:47.469Z,19
2023-04-01T10:36:48.622Z,19
2023-04-01T10:37:49.369Z,19
2023-04-01T10:38:50.366Z,19
2023-04-01T10:39:51.383Z,19
2023-04-01T10:40:52.474Z,19
2023-04-01T10:41:54.187Z,19
2023-04-01T10:42:55.361Z,19
2023-04-01T10:43:56.348Z,19
2023-04-01T10:44:57.392Z,19
2023-04-01T10:45:58.745Z,19
2023-04-01T10:47:00.380Z,19
2023-04-01T10:48:01.443Z,20
2023-04-01T10:49:02.421Z,20
2023-04-01T10:50:03.401Z,19
2023-04-01T10:51:04.477Z,19
2023-04-01T10:52:05.349Z,19
2023-04-01T10:53:07.375Z,19
2023-04-01T10:54:07.565Z,20
2023-04-01T10:55:09.503Z,22
2023-04-01T10:56:11.488Z,22
2023-04-01T10:57:12.461Z,22
2023-04-01T10:58:14.615Z,22
2023-04-01T10:59:16.714Z,23
2023-04-01T11:00:21.221Z,23
2023-04-01T11:01:22.415Z,24
2023-04-01T11:02:23.559Z,24
2023-04-01T11:03:24.768Z,24
2023-04-01T11:04:26.346Z,26
2023-04-01T11:05:27.423Z,27
2023-04-01T11:06:28.402Z,27
2023-04-01T11:07:29.430Z,25
2023-04-01T11:08:30.685Z,24
2023-04-01T11:09:32.453Z,24
2023-04-01T11:10:33.390Z,23
2023-04-01T11:11:34.441Z,24
2023-04-01T11:12:35.484Z,23
2023-04-01T11:13:36.572Z,23
2023-04-01T11:14:38.402Z,24
2023-04-01T11:15:39.529Z,23
2023-04-01T11:16:41.633Z,23
2023-04-01T11:17:42.891Z,22
2023-04-01T11:18:44.507Z,22
2023-04-01T11:19:45.513Z,22
2023-04-01T11:20:46.403Z,22
2023-04-01T11:21:47.744Z,23
2023-04-01T11:22:49.330Z,22
2023-04-01T11:24:02.123Z,22
2023-04-01T11:24:51.403Z,23
2023-04-01T11:25:53.317Z,24
2023-04-01T11:26:55.142Z,24
2023-04-01T11:27:56.882Z,23
2023-04-01T11:28:58.347Z,22
2023-04-01T11:30:00.437Z,22
2023-04-01T11:31:00.710Z,22
2023-04-01T11:32:02.684Z,23
2023-04-01T11:33:05.082Z,24
2023-04-01T11:34:06.848Z,25
2023-04-01T11:35:08.414Z,25
2023-04-01T11:36:09.443Z,24
2023-04-01T11:37:10.502Z,25
2023-04-01T11:38:12.422Z,24
2023-04-01T11:39:14.462Z,24
2023-04-01T11:40:15.402Z,24
2023-04-01T11:41:16.712Z,24
2023-04-01T11:42:18.846Z,25
2023-04-01T11:43:30.356Z,25
2023-04-01T11:44:21.484Z,26
2023-04-01T11:45:22.581Z,26
2023-04-01T11:46:24.775Z,28
2023-04-01T11:47:27.573Z,30
2023-04-01T11:48:28.371Z,27
2023-04-01T11:49:29.675Z,28
2023-04-01T11:50:31.161Z,28
2023-04-01T11:51:32.982Z,29
2023-04-01T11:52:34.913Z,30
2023-04-01T11:53:36.544Z,30
2023-04-01T11:54:38.463Z,31
2023-04-01T11:55:39.393Z,33
2023-04-01T11:56:40.426Z,33
2023-04-01T11:57:42.463Z,31
2023-04-01T11:58:43.430Z,31
2023-04-01T11:59:44.537Z,31
2023-04-01T12:00:46.566Z,33
2023-04-01T12:01:47.456Z,31
2023-04-01T12:02:48.835Z,31
2023-04-01T12:03:55.914Z,31
2023-04-01T12:04:57.608Z,31
2023-04-01T12:05:58.899Z,31
2023-04-01T12:07:00.713Z,30
2023-04-01T12:08:02.593Z,30
2023-04-01T12:09:04.904Z,30
2023-04-01T12:10:06.707Z,29
2023-04-01T12:11:08.823Z,28
2023-04-01T12:12:10.796Z,27
2023-04-01T12:13:12.486Z,28
2023-04-01T12:14:13.526Z,29
2023-04-01T12:15:15.553Z,30
2023-04-01T12:16:16.545Z,30
2023-04-01T12:17:18.486Z,30
2023-04-01T12:18:20.148Z,31
2023-04-01T12:19:21.654Z,31
2023-04-01T12:20:23.806Z,31
2023-04-01T12:21:26.620Z,31
2023-04-01T12:22:27.910Z,32
2023-04-01T12:23:29.538Z,31
2023-04-01T12:24:30.484Z,31
2023-04-01T12:25:31.821Z,31
2023-04-01T12:26:32.504Z,31
2023-04-01T12:27:33.526Z,33
2023-04-01T12:28:34.785Z,33
2023-04-01T12:29:36.471Z,34
2023-04-01T12:30:37.847Z,34
2023-04-01T12:31:39.486Z,34
2023-04-01T12:32:40.428Z,35
2023-04-01T12:33:41.543Z,36
2023-04-01T12:34:42.387Z,38
2023-04-01T12:35:43.457Z,38
2023-04-01T12:36:44.488Z,39
2023-04-01T12:37:45.509Z,41
2023-04-01T12:38:46.955Z,41
2023-04-01T12:39:48.458Z,-1
2023-04-01T12:40:49.464Z,41
2023-04-01T12:41:50.411Z,40
2023-04-01T12:42:51.388Z,40
2023-04-01T12:43:52.520Z,40
2023-04-01T12:44:53.926Z,41
2023-04-01T12:45:55.512Z,42
2023-04-01T12:46:56.507Z,44
2023-04-01T12:47:57.500Z,44
2023-04-01T12:48:58.606Z,45
2023-04-01T12:50:00.564Z,45
2023-04-01T12:51:01.475Z,44
2023-04-01T12:52:02.910Z,44
2023-04-01T12:53:04.610Z,39
2023-04-01T12:54:07.104Z,40
2023-04-01T12:55:09.844Z,38
2023-04-01T12:56:11.566Z,35
2023-04-01T12:57:13.616Z,35
2023-04-01T12:58:14.772Z,35
2023-04-01T12:59:16.778Z,36
2023-04-01T13:00:18.466Z,36
2023-04-01T13:01:19.460Z,38
2023-04-01T13:02:20.896Z,38
2023-04-01T13:03:22.499Z,37
2023-04-01T13:04:23.478Z,35
2023-04-01T13:05:26.146Z,36
2023-04-01T13:06:27.579Z,36
2023-04-01T13:07:28.590Z,36
2023-04-01T13:08:30.751Z,36
2023-04-01T13:09:32.733Z,36
2023-04-01T13:10:34.657Z,34
2023-04-01T13:11:35.541Z,35
2023-04-01T13:12:36.463Z,35
2023-04-01T13:13:37.568Z,31
2023-04-01T13:14:38.434Z,30
2023-04-01T13:15:39.720Z,30
2023-04-01T13:16:41.550Z,31
2023-04-01T13:17:42.558Z,31
2023-04-01T13:18:43.592Z,33
2023-04-01T13:19:54.249Z,33
2023-04-01T13:20:46.802Z,29
2023-04-01T13:21:48.527Z,29
2023-04-01T13:22:49.549Z,29
2023-04-01T13:23:50.729Z,30
2023-04-01T13:24:52.564Z,31
2023-04-01T13:26:02.375Z,33
2023-04-01T13:26:55.546Z,33
2023-04-01T13:27:56.447Z,34
2023-04-01T13:28:57.484Z,31
2023-04-01T13:29:59.457Z,28
2023-04-01T13:31:02.091Z,28
2023-04-01T13:32:03.610Z,27
2023-04-01T13:33:04.595Z,28
2023-04-01T13:34:06.474Z,28
2023-04-01T13:35:07.913Z,29
2023-04-01T13:36:09.797Z,29
2023-04-01T13:37:12.105Z,29
2023-04-01T13:38:13.802Z,29
2023-04-01T13:39:15.962Z,28
2023-04-01T13:40:17.487Z,29
2023-04-01T13:41:18.427Z,29
2023-04-01T13:42:19.529Z,29
2023-04-01T13:43:20.648Z,31
2023-04-01T13:44:22.456Z,33
2023-04-01T13:45:24.108Z,31
2023-04-01T13:46:25.530Z,31
2023-04-01T13:47:26.629Z,31
2023-04-01T13:48:28.338Z,33
2023-04-01T13:49:29.585Z,34
2023-04-01T13:50:32.061Z,34
2023-04-01T13:51:33.602Z,34
2023-04-01T13:52:35.613Z,33
2023-04-01T13:53:36.461Z,33
2023-04-01T13:54:37.463Z,30
2023-04-01T13:55:42.705Z,29
2023-04-01T13:56:43.468Z,29
2023-04-01T13:57:44.741Z,29
2023-04-01T13:58:45.527Z,29
2023-04-01T13:59:46.491Z,30
2023-04-01T14:00:47.892Z,30
2023-04-01T14:01:49.580Z,31
2023-04-01T14:02:51.277Z,31
2023-04-01T14:03:51.550Z,33
2023-04-01T14:04:52.505Z,33
2023-04-01T14:05:53.478Z,31
2023-04-01T14:06:54.498Z,31
2023-04-01T14:07:55.607Z,31
2023-04-01T14:08:56.587Z,31
2023-04-01T14:09:58.624Z,31
2023-04-01T14:11:00.507Z,33
2023-04-01T14:12:01.530Z,34
2023-04-01T14:13:02.599Z,34
2023-04-01T14:14:03.463Z,34
2023-04-01T14:15:04.645Z,33
2023-04-01T14:16:05.702Z,31
2023-04-01T14:17:06.780Z,30
2023-04-01T14:18:07.631Z,30
2023-04-01T14:19:08.483Z,30
2023-04-01T14:20:09.761Z,30
2023-04-01T14:21:11.501Z,28
2023-04-01T14:22:12.481Z,29
2023-04-01T14:23:14.068Z,29
2023-04-01T14:24:15.481Z,29
2023-04-01T14:25:16.853Z,29
2023-04-01T14:26:18.882Z,29
2023-04-01T14:27:21.071Z,29
2023-04-01T14:28:23.083Z,28
2023-04-01T14:29:24.601Z,30
2023-04-01T14:30:26.700Z,30
2023-04-01T14:31:28.507Z,30
2023-04-01T14:32:29.463Z,29
2023-04-01T14:33:30.626Z,29
2023-04-01T14:34:31.503Z,29
2023-04-01T14:35:32.806Z,29